Time;durP1;ratioP1;P1;durP2;ratioP2;P2;SDS_P1;SDS_P2;PMS_P1;PMS_P2;Temp;Humidity;BMP_temperature;BMP_pressure;BME280_temperature;BME280_humidity;BME280_pressure;Samples;Min_cycle;Max_cycle;Signal;HPM_P1;HPM_P2
2023/03/31 00:00:29;;;;;;;34.72;5.43;;;9.50;99.90;;;;;;5093181;28;20043;-48
2023/03/31 00:02:56;;;;;;;31.70;5.20;;;9.90;99.90;;;;;;5093405;28;20040;-48
2023/03/31 00:05:23;;;;;;;32.20;7.05;;;9.50;99.90;;;;;;5092230;28;20050;-47
2023/03/31 00:08:02;;;;;;;28.50;4.47;;;9.60;99.90;;;;;;5093174;28;20053;-51
2023/03/31 00:10:33;;;;;;;25.58;5.22;;;10.00;99.90;;;;;;5093322;28;20036;-52
2023/03/31 00:13:00;;;;;;;31.80;5.60;;;9.60;99.90;;;;;;5093205;28;20044;-51
2023/03/31 00:15:26;;;;;;;34.67;6.00;;;10.00;99.90;;;;;;5093096;28;20470;-49
2023/03/31 00:17:52;;;;;;;33.45;6.18;;;10.00;99.90;;;;;;5092838;28;20400;-47
2023/03/31 00:20:18;;;;;;;23.58;4.50;;;9.50;99.90;;;;;;5093184;28;20036;-48
2023/03/31 00:22:47;;;;;;;33.65;5.18;;;10.00;99.90;;;;;;5091847;28;20040;-52
2023/03/31 00:25:14;;;;;;;29.80;5.13;;;9.80;99.90;;;;;;5093088;28;20458;-48
2023/03/31 00:27:44;;;;;;;36.55;5.18;;;9.60;99.90;;;;;;5091397;28;20051;-50
2023/03/31 00:30:12;;;;;;;26.92;4.85;;;9.60;99.90;;;;;;5092702;28;20040;-50
2023/03/31 00:32:38;;;;;;;27.40;4.63;;;10.00;99.90;;;;;;5092779;28;20058;-48
2023/03/31 00:35:04;;;;;;;29.27;5.35;;;9.60;99.90;;;;;;5092390;28;20044;-47
2023/03/31 00:37:32;;;;;;;36.35;5.03;;;9.60;99.90;;;;;;5092909;28;20032;-49
2023/03/31 00:39:58;;;;;;;26.98;4.57;;;9.90;99.90;;;;;;5091282;28;20056;-58
2023/03/31 00:42:25;;;;;;;28.20;5.10;;;10.00;99.90;;;;;;5091312;28;20125;-48
2023/03/31 00:45:23;;;;;;;31.17;5.28;;;9.60;99.90;;;;;;5092663;28;20400;-47
2023/03/31 00:48:15;;;;;;;32.92;4.95;;;9.80;99.90;;;;;;5084227;28;20052;-47
2023/03/31 00:50:52;;;;;;;30.20;4.68;;;10.00;99.90;;;;;;5092292;28;20079;-47
2023/03/31 00:53:21;;;;;;;26.48;5.00;;;9.90;99.90;;;;;;5092385;28;20048;-47
2023/03/31 00:55:53;;;;;;;31.73;4.53;;;9.50;99.90;;;;;;5092232;28;20039;-48
2023/03/31 00:58:19;;;;;;;;;;;9.70;99.90;;;;;;5092713;28;20079;-48
2023/03/31 01:00:51;;;;;;;33.65;6.03;;;9.30;99.90;;;;;;5092293;28;19920;-47
2023/03/31 01:03:21;;;;;;;30.88;6.18;;;9.60;99.90;;;;;;5092164;28;20115;-48
2023/03/31 01:05:55;;;;;;;28.02;5.18;;;9.80;99.90;;;;;;5090895;28;20087;-47
2023/03/31 01:08:24;;;;;;;31.58;5.18;;;9.20;99.90;;;;;;5090702;28;20048;-49
2023/03/31 01:10:53;;;;;;;30.65;4.63;;;9.60;99.90;;;;;;5092366;28;20038;-47
2023/03/31 01:13:21;;;;;;;28.38;5.38;;;9.50;99.90;;;;;;5092060;28;20565;-47
2023/03/31 01:15:47;;;;;;;36.17;5.13;;;9.70;99.90;;;;;;5091801;28;20093;-47
2023/03/31 01:18:15;;;;;;;27.73;4.90;;;9.70;99.90;;;;;;5092252;28;20044;-49
2023/03/31 01:21:05;;;;;;;32.38;5.30;;;9.60;99.90;;;;;;5091984;28;20047;-52
2023/03/31 01:24:14;;;;;;;30.13;4.90;;;9.60;99.90;;;;;;5092235;28;20391;-47
2023/03/31 01:26:59;;;;;;;31.17;4.80;;;9.00;99.90;;;;;;5091989;28;20044;-47
2023/03/31 01:30:10;;;;;;;29.85;5.00;;;9.40;99.90;;;;;;5091947;28;20108;-49
2023/03/31 01:33:12;;;;;;;25.02;4.20;;;9.00;99.90;;;;;;5091851;28;20040;-52
2023/03/31 01:36:07;;;;;;;31.80;5.45;;;9.00;99.90;;;;;;5091892;28;20048;-48
2023/03/31 01:38:48;;;;;;;26.15;5.22;;;9.20;99.90;;;;;;5093001;28;20044;-49
2023/03/31 01:41:49;;;;;;;27.20;4.85;;;9.30;99.90;;;;;;5095712;28;20052;-49
2023/03/31 01:44:38;;;;;;;30.83;4.95;;;9.00;99.90;;;;;;5090259;28;20496;-47
2023/03/31 01:47:21;;;;;;;28.15;4.45;;;9.30;99.90;;;;;;5095918;28;20147;-50
2023/03/31 01:50:05;;;;;;;26.13;5.50;;;9.40;99.90;;;;;;5095835;28;20028;-49
2023/03/31 01:53:01;;;;;;;25.92;4.30;;;9.00;99.90;;;;;;5095732;28;20039;-48
2023/03/31 01:55:41;;;;;;;28.60;4.72;;;9.10;99.90;;;;;;5095394;28;20040;-48
2023/03/31 01:58:15;;;;;;;27.27;4.85;;;9.00;99.90;;;;;;5095752;28;20040;-48
2023/03/31 02:00:50;;;;;;;23.33;3.85;;;9.30;99.90;;;;;;5094513;28;20488;-48
2023/03/31 02:03:31;;;;;;;26.02;4.55;;;9.10;99.90;;;;;;5094359;28;20048;-49
2023/03/31 02:06:03;;;;;;;27.27;4.82;;;8.90;99.90;;;;;;5095754;28;20048;-49
2023/03/31 02:08:36;;;;;;;21.48;4.18;;;8.80;99.90;;;;;;5095115;28;20036;-48
2023/03/31 02:11:02;;;;;;;24.45;4.30;;;9.30;99.90;;;;;;5095393;28;20126;-51
2023/03/31 02:13:29;;;;;;;26.70;4.82;;;8.80;99.90;;;;;;5095626;28;20044;-50
2023/03/31 02:16:00;;;;;;;18.63;4.68;;;8.80;99.90;;;;;;5095169;28;20609;-52
2023/03/31 02:18:29;;;;;;;25.00;4.28;;;9.10;99.90;;;;;;5095439;28;20400;-49
2023/03/31 02:20:57;;;;;;;26.83;4.95;;;9.40;99.90;;;;;;5095316;28;20055;-51
2023/03/31 02:23:30;;;;;;;27.25;4.20;;;8.90;99.90;;;;;;5095168;28;20467;-50
2023/03/31 02:26:20;;;;;;;28.30;4.60;;;9.30;99.90;;;;;;5095482;28;20047;-49
2023/03/31 02:28:46;;;;;;;20.40;3.97;;;9.30;99.90;;;;;;5095176;28;20082;-47
2023/03/31 02:31:39;;;;;;;19.50;4.20;;;9.40;99.90;;;;;;5095209;28;20542;-49
2023/03/31 02:34:05;;;;;;;25.15;4.55;;;9.20;99.90;;;;;;5093684;28;20078;-48
2023/03/31 02:36:32;;;;;;;27.73;4.28;;;8.90;99.90;;;;;;5095116;28;20067;-47
2023/03/31 02:39:20;;;;;;;25.58;4.20;;;9.30;99.90;;;;;;5094980;28;20085;-47
2023/03/31 02:41:46;;;;;;;21.83;4.22;;;9.50;99.90;;;;;;5094793;28;20040;-48
2023/03/31 02:44:12;;;;;;;19.40;4.20;;;8.90;99.90;;;;;;5094794;28;20036;-47
2023/03/31 02:46:38;;;;;;;21.00;4.55;;;9.00;99.90;;;;;;5094982;28;20452;-47
2023/03/31 02:49:07;;;;;;;18.10;4.78;;;9.40;99.90;;;;;;5094733;28;20404;-47
2023/03/31 02:52:00;;;;;;;21.77;4.07;;;9.30;99.90;;;;;;5094740;28;20040;-48
2023/03/31 02:54:40;;;;;;;21.63;3.55;;;9.20;99.90;;;;;;5094464;28;20082;-47
2023/03/31 02:57:34;;;;;;;23.00;4.20;;;9.70;99.90;;;;;;5094392;28;20115;-47
2023/03/31 03:00:45;;;;;;;20.13;4.38;;;9.40;99.90;;;;;;5094753;28;20042;-50
2023/03/31 03:03:20;;;;;;;18.08;3.88;;;9.40;99.90;;;;;;5051776;28;20163;-47
2023/03/31 03:06:22;;;;;;;22.80;4.40;;;9.10;99.90;;;;;;5051923;28;20080;-48
2023/03/31 03:09:07;;;;;;;18.70;3.65;;;9.20;99.90;;;;;;5086709;28;20534;-49
2023/03/31 03:11:50;;;;;;;19.27;3.55;;;9.70;99.90;;;;;;5094444;28;20078;-48
2023/03/31 03:14:32;;;;;;;27.50;3.85;;;9.60;99.90;;;;;;5093137;28;20052;-48
2023/03/31 03:17:24;;;;;;;20.02;4.53;;;9.10;99.90;;;;;;5093367;28;20051;-48
2023/03/31 03:19:55;;;;;;;24.15;4.35;;;9.70;99.90;;;;;;5094327;28;20040;-50
2023/03/31 03:22:22;;;;;;;22.02;3.85;;;9.10;99.90;;;;;;5094146;28;20341;-50
2023/03/31 03:24:48;;;;;;;21.15;4.15;;;9.10;99.90;;;;;;5093961;28;20048;-48
2023/03/31 03:27:14;;;;;;;18.85;3.40;;;9.20;99.90;;;;;;5094189;28;20127;-48
2023/03/31 03:29:41;;;;;;;20.63;3.75;;;9.70;99.90;;;;;;5092634;28;20043;-52
2023/03/31 03:32:08;;;;;;;17.52;3.80;;;9.40;99.90;;;;;;5093868;28;20040;-49
2023/03/31 03:34:34;;;;;;;16.77;3.67;;;9.40;99.90;;;;;;5093954;28;20083;-50
2023/03/31 03:36:59;;;;;;;18.77;4.00;;;9.40;99.90;;;;;;5093913;28;20071;-52
2023/03/31 03:39:25;;;;;;;22.77;3.63;;;9.20;99.90;;;;;;5093380;28;20044;-48
2023/03/31 03:41:51;;;;;;;23.48;3.92;;;9.20;99.90;;;;;;5093905;28;20040;-50
2023/03/31 03:44:17;;;;;;;20.92;4.10;;;9.70;99.90;;;;;;5093692;28;20055;-52
2023/03/31 03:46:42;;;;;;;16.63;3.10;;;9.50;99.90;;;;;;5092494;28;20541;-47
2023/03/31 03:49:08;;;;;;;21.23;4.03;;;9.70;99.90;;;;;;5093204;28;20141;-50
2023/03/31 03:51:34;;;;;;;25.85;3.85;;;9.20;99.90;;;;;;5092789;28;20080;-52
2023/03/31 03:54:00;;;;;;;19.50;3.42;;;9.40;99.90;;;;;;5093542;28;20092;-50
2023/03/31 03:56:26;;;;;;;16.52;3.33;;;9.50;99.90;;;;;;5093400;28;20493;-48
2023/03/31 03:58:52;;;;;;;20.85;3.53;;;9.20;99.90;;;;;;5091851;28;20404;-49
2023/03/31 04:01:17;;;;;;;19.05;4.20;;;9.50;99.90;;;;;;5092700;28;20058;-48
2023/03/31 04:03:44;;;;;;;17.55;3.30;;;9.30;99.90;;;;;;5092834;28;20484;-48
2023/03/31 04:06:09;;;;;;;18.63;3.88;;;9.40;99.90;;;;;;5093499;28;20518;-50
2023/03/31 04:08:35;;;;;;;16.10;4.55;;;9.20;99.90;;;;;;5092184;28;20090;-49
2023/03/31 04:11:01;;;;;;;16.65;3.50;;;9.20;99.90;;;;;;5093229;28;20036;-49
2023/03/31 04:13:27;;;;;;;18.58;3.70;;;9.20;99.90;;;;;;5093078;28;20040;-49
2023/03/31 04:15:53;;;;;;;16.02;3.90;;;9.30;99.90;;;;;;5092822;28;20513;-51
2023/03/31 04:18:22;;;;;;;15.98;3.75;;;9.30;99.90;;;;;;5092939;28;20454;-51
2023/03/31 04:20:53;;;;;;;17.77;4.18;;;9.40;99.90;;;;;;5092889;28;20035;-52
2023/03/31 04:23:22;;;;;;;19.83;4.70;;;9.80;99.90;;;;;;5092984;28;20051;-48
2023/03/31 04:25:49;;;;;;;12.77;4.15;;;9.20;99.90;;;;;;5092931;28;20032;-51
2023/03/31 04:28:15;;;;;;;15.13;3.85;;;9.40;99.90;;;;;;5075026;28;20825;-51
2023/03/31 04:30:42;;;;;;;20.20;4.82;;;9.70;99.90;;;;;;5092573;28;20043;-52
2023/03/31 04:33:07;;;;;;;17.27;5.15;;;10.00;99.90;;;;;;5092712;28;20040;-48
2023/03/31 04:35:48;;;;;;;13.80;4.43;;;9.90;99.90;;;;;;5092823;28;20048;-48
2023/03/31 04:38:20;;;;;;;18.58;4.47;;;10.00;99.90;;;;;;5092614;28;20039;-48
2023/03/31 04:40:47;;;;;;;18.60;5.22;;;9.30;99.90;;;;;;5092249;28;20449;-49
2023/03/31 04:43:14;;;;;;;17.42;5.70;;;10.00;99.90;;;;;;5092549;28;20044;-50
2023/03/31 04:45:40;;;;;;;16.90;5.63;;;10.10;99.90;;;;;;5092785;28;20450;-50
2023/03/31 04:48:06;;;;;;;19.85;6.20;;;9.20;99.90;;;;;;5092642;28;20047;-49
2023/03/31 04:50:32;;;;;;;15.30;6.00;;;9.60;99.90;;;;;;5092163;28;20032;-52
2023/03/31 04:52:57;;;;;;;17.08;5.63;;;9.50;99.90;;;;;;5092538;28;20036;-51
2023/03/31 04:55:24;;;;;;;23.23;7.18;;;9.20;99.90;;;;;;5092239;28;20043;-48
2023/03/31 04:57:50;;;;;;;21.50;6.15;;;9.60;99.90;;;;;;5092717;28;20043;-48
2023/03/31 05:00:17;;;;;;;21.52;6.40;;;9.30;99.90;;;;;;5090883;28;20492;-48
2023/03/31 05:02:43;;;;;;;22.23;6.22;;;9.60;99.90;;;;;;5092583;28;20028;-49
2023/03/31 05:05:09;;;;;;;19.55;6.75;;;9.90;99.90;;;;;;5092206;28;20547;-48
2023/03/31 05:07:35;;;;;;;16.48;6.22;;;9.90;99.90;;;;;;5092143;28;20492;-48
2023/03/31 05:10:01;;;;;;;17.05;6.28;;;10.20;99.90;;;;;;5091965;28;20040;-49
2023/03/31 05:12:26;;;;;;;16.90;6.68;;;10.00;99.90;;;;;;5091775;28;20043;-47
2023/03/31 05:14:52;;;;;;;20.00;7.13;;;9.30;99.90;;;;;;5091329;28;20123;-47
2023/03/31 05:17:18;;;;;;;19.60;6.05;;;9.40;99.90;;;;;;5091127;28;20039;-47
2023/03/31 05:19:44;;;;;;;20.92;7.20;;;9.40;99.90;;;;;;5092158;28;20611;-48
2023/03/31 05:22:09;;;;;;;22.65;6.75;;;9.80;99.90;;;;;;5092088;28;20141;-49
2023/03/31 05:24:35;;;;;;;24.50;6.75;;;10.20;99.90;;;;;;5091940;28;20373;-50
2023/03/31 05:27:01;;;;;;;15.82;6.85;;;9.90;99.90;;;;;;5092010;28;20076;-47
2023/03/31 05:29:27;;;;;;;18.65;6.90;;;10.00;99.90;;;;;;5091972;28;20476;-49
2023/03/31 05:31:52;;;;;;;19.90;7.57;;;9.90;99.90;;;;;;5092120;28;20044;-47
2023/03/31 05:34:19;;;;;;;18.58;7.78;;;10.30;99.90;;;;;;5091978;28;20377;-49
2023/03/31 05:36:46;;;;;;;20.98;7.65;;;9.30;99.90;;;;;;5090572;28;20046;-52
2023/03/31 05:39:12;;;;;;;15.75;7.13;;;9.30;99.90;;;;;;5091737;28;20036;-51
2023/03/31 05:41:39;;;;;;;16.67;7.30;;;10.10;99.90;;;;;;5091934;28;20072;-51
2023/03/31 05:44:05;;;;;;;17.05;7.40;;;9.90;99.90;;;;;;5092024;28;20032;-50
2023/03/31 05:46:30;;;;;;;17.45;7.32;;;10.30;99.90;;;;;;5091661;28;20040;-49
2023/03/31 05:48:57;;;;;;;17.08;8.30;;;9.50;99.90;;;;;;5089329;28;20412;-47
2023/03/31 05:51:23;;;;;;;15.93;6.90;;;9.80;99.90;;;;;;5090162;28;20040;-47
2023/03/31 05:53:49;;;;;;;23.02;7.60;;;9.50;99.90;;;;;;5090528;28;20044;-51
2023/03/31 05:56:15;;;;;;;19.08;7.05;;;10.20;99.90;;;;;;5090056;28;20396;-47
2023/03/31 05:58:40;;;;;;;20.55;7.97;;;9.70;99.90;;;;;;5090368;28;20047;-49
2023/03/31 06:01:09;;;;;;;21.67;6.90;;;10.00;99.90;;;;;;5090192;28;20533;-48
2023/03/31 06:03:37;;;;;;;14.25;6.22;;;10.30;99.90;;;;;;5089096;28;20399;-51
2023/03/31 06:06:06;;;;;;;21.73;6.30;;;9.50;99.90;;;;;;5077398;28;20040;-47
2023/03/31 06:08:33;;;;;;;16.90;6.53;;;10.20;99.90;;;;;;5078348;28;20033;-47
2023/03/31 06:10:59;;;;;;;17.98;6.53;;;9.50;99.90;;;;;;5090025;28;20521;-48
2023/03/31 06:13:25;;;;;;;14.02;6.13;;;9.60;99.90;;;;;;5090261;28;20036;-51
2023/03/31 06:15:58;;;;;;;16.05;6.78;;;10.30;99.90;;;;;;5090081;28;20472;-49
2023/03/31 06:18:27;;;;;;;16.00;6.50;;;10.30;99.90;;;;;;5090057;28;20040;-53
2023/03/31 06:20:53;;;;;;;15.02;5.85;;;10.30;99.90;;;;;;5089623;28;20162;-53
2023/03/31 06:23:19;;;;;;;16.30;6.00;;;9.60;99.90;;;;;;5090268;28;20368;-48
2023/03/31 06:25:45;;;;;;;12.40;4.82;;;9.60;99.90;;;;;;5092915;28;20051;-49
2023/03/31 06:28:11;;;;;;;19.50;5.00;;;10.20;99.90;;;;;;5093827;28;20048;-53
2023/03/31 06:30:36;;;;;;;13.55;6.25;;;9.60;99.90;;;;;;5093944;28;20042;-51
2023/03/31 06:33:02;;;;;;;13.40;5.07;;;10.30;99.90;;;;;;5093379;28;20128;-52
2023/03/31 06:35:28;;;;;;;12.43;4.32;;;10.20;99.90;;;;;;5093308;28;20066;-51
2023/03/31 06:37:54;;;;;;;11.68;4.68;;;10.40;99.90;;;;;;5092563;28;20043;-51
2023/03/31 06:40:20;;;;;;;15.32;5.30;;;10.00;99.90;;;;;;5092014;28;20500;-52
2023/03/31 06:42:46;;;;;;;18.00;4.93;;;10.40;99.90;;;;;;5093282;28;20060;-51
2023/03/31 06:45:11;;;;;;;12.77;4.97;;;10.30;99.90;;;;;;5093525;28;20048;-52
2023/03/31 06:47:37;;;;;;;14.30;5.65;;;10.50;99.90;;;;;;5093166;28;20093;-51
2023/03/31 06:50:07;;;;;;;11.27;5.28;;;10.40;99.90;;;;;;5093181;28;20046;-51
2023/03/31 06:52:32;;;;;;;16.98;5.35;;;10.50;99.90;;;;;;5093075;28;20040;-48
2023/03/31 06:54:59;;;;;;;15.30;4.60;;;10.40;99.90;;;;;;5093032;28;20051;-52
2023/03/31 06:57:25;;;;;;;17.15;5.18;;;10.50;99.90;;;;;;5091807;28;20048;-53
2023/03/31 06:59:51;;;;;;;12.65;4.68;;;9.70;99.90;;;;;;5093234;28;20097;-51
2023/03/31 07:02:17;;;;;;;14.45;4.90;;;9.80;99.90;;;;;;5092955;28;20097;-49
2023/03/31 07:04:42;;;;;;;11.73;4.68;;;9.80;99.90;;;;;;5093068;28;20050;-52
2023/03/31 07:07:08;;;;;;;12.25;5.05;;;10.40;99.90;;;;;;5093068;28;20378;-49
2023/03/31 07:09:34;;;;;;;12.13;4.65;;;10.30;99.90;;;;;;5093093;28;20401;-48
2023/03/31 07:12:00;;;;;;;12.13;4.50;;;10.00;99.90;;;;;;5084269;28;20044;-51
2023/03/31 07:14:26;;;;;;;11.82;4.03;;;10.20;99.90;;;;;;5082134;28;20582;-53
2023/03/31 07:16:52;;;;;;;9.25;3.85;;;10.40;99.90;;;;;;5089615;28;20111;-49
2023/03/31 07:19:18;;;;;;;11.32;3.88;;;10.30;99.90;;;;;;5092660;28;20032;-49
2023/03/31 07:21:44;;;;;;;10.65;3.50;;;10.10;99.90;;;;;;5092856;28;20403;-48
2023/03/31 07:24:10;;;;;;;11.07;3.70;;;10.40;99.90;;;;;;5092563;28;20044;-47
2023/03/31 07:26:35;;;;;;;9.10;3.60;;;10.10;99.90;;;;;;5092616;28;20063;-47
2023/03/31 07:29:01;;;;;;;10.65;4.20;;;9.70;99.90;;;;;;5092613;28;20404;-52
2023/03/31 07:31:27;;;;;;;10.70;4.18;;;9.80;99.90;;;;;;5092459;28;20040;-49
2023/03/31 07:33:52;;;;;;;13.02;4.47;;;10.10;99.90;;;;;;5091029;28;20040;-48
2023/03/31 07:36:18;;;;;;;13.52;4.68;;;9.70;99.90;;;;;;5091553;28;20032;-50
2023/03/31 07:38:47;;;;;;;11.68;4.43;;;9.80;99.90;;;;;;5085920;28;20069;-48
2023/03/31 07:41:15;;;;;;;14.68;5.07;;;9.80;99.90;;;;;;5071989;28;20128;-48
2023/03/31 07:43:41;;;;;;;11.50;4.70;;;10.40;99.90;;;;;;5072051;28;20047;-53
2023/03/31 07:46:23;;;;;;;10.57;4.88;;;9.70;99.90;;;;;;5072060;28;20053;-48
2023/03/31 07:48:49;;;;;;;9.77;4.43;;;10.00;99.90;;;;;;5080557;28;20036;-49
2023/03/31 07:51:17;;;;;;;10.80;4.72;;;9.70;99.90;;;;;;5085704;28;20040;-52
2023/03/31 07:53:43;;;;;;;11.45;4.60;;;9.70;99.90;;;;;;5089245;28;20072;-52
2023/03/31 07:56:09;;;;;;;12.32;4.68;;;9.80;99.90;;;;;;5092031;28;20066;-48
2023/03/31 07:58:35;;;;;;;8.25;4.40;;;10.50;99.90;;;;;;5091672;28;20555;-52
2023/03/31 08:01:00;;;;;;;10.60;4.30;;;9.80;99.90;;;;;;5091939;28;20110;-49
2023/03/31 08:03:26;;;;;;;12.88;5.75;;;10.50;99.90;;;;;;5091959;28;20036;-51
2023/03/31 08:05:53;;;;;;;9.77;4.32;;;9.90;99.90;;;;;;5091863;28;20404;-53
2023/03/31 08:08:19;;;;;;;12.18;4.40;;;9.90;99.90;;;;;;5091685;28;20048;-51
2023/03/31 08:10:46;;;;;;;9.40;4.00;;;10.30;99.90;;;;;;5091817;28;20138;-49
2023/03/31 08:13:12;;;;;;;11.38;4.32;;;10.20;99.90;;;;;;5088549;28;20055;-50
2023/03/31 08:15:38;;;;;;;10.02;4.00;;;9.90;99.90;;;;;;5085239;28;20032;-48
2023/03/31 08:18:04;;;;;;;11.80;3.97;;;10.40;99.90;;;;;;5090497;28;20040;-49
2023/03/31 08:20:30;;;;;;;9.35;3.58;;;10.40;99.90;;;;;;5091644;28;20119;-47
2023/03/31 08:22:56;;;;;;;9.27;4.25;;;10.60;99.90;;;;;;5091448;28;20559;-48
2023/03/31 08:25:22;;;;;;;8.40;3.50;;;10.60;99.90;;;;;;5091479;28;20043;-55
2023/03/31 08:27:52;;;;;;;9.32;3.45;;;9.80;99.90;;;;;;5081939;28;20116;-48
2023/03/31 08:30:19;;;;;;;10.05;3.47;;;10.40;99.90;;;;;;5063632;28;20059;-49
2023/03/31 08:32:45;;;;;;;9.00;4.03;;;10.60;99.90;;;;;;5078505;28;20400;-47
2023/03/31 08:35:11;;;;;;;10.60;3.85;;;10.20;99.90;;;;;;5080747;28;20040;-52
2023/03/31 08:37:37;;;;;;;9.82;3.67;;;10.70;99.90;;;;;;5087542;28;20434;-52
2023/03/31 08:40:08;;;;;;;13.07;3.88;;;10.00;99.90;;;;;;5079508;28;20052;-48
2023/03/31 08:42:52;;;;;;;8.13;3.53;;;10.10;99.90;;;;;;5078075;28;20036;-49
2023/03/31 08:45:21;;;;;;;8.82;3.88;;;10.70;99.90;;;;;;5070547;28;20048;-49
2023/03/31 08:47:50;;;;;;;9.30;4.28;;;10.70;99.90;;;;;;5070635;28;20040;-48
2023/03/31 08:50:20;;;;;;;8.27;3.85;;;10.20;99.90;;;;;;5090743;28;20044;-49
2023/03/31 08:53:02;;;;;;;10.10;3.72;;;10.40;99.90;;;;;;5090886;28;20404;-48
2023/03/31 08:55:51;;;;;;;11.65;3.58;;;10.70;99.90;;;;;;5090960;28;20055;-50
2023/03/31 08:58:28;;;;;;;11.00;4.32;;;10.50;99.90;;;;;;5090298;28;20064;-50
2023/03/31 09:01:15;;;;;;;11.40;3.70;;;10.60;99.90;;;;;;5090813;28;20400;-53
2023/03/31 09:04:24;;;;;;;8.68;3.42;;;10.80;99.90;;;;;;5090960;28;20039;-47
2023/03/31 09:07:01;;;;;;;9.50;3.55;;;10.80;99.90;;;;;;5089438;28;20075;-63
2023/03/31 09:09:49;;;;;;;10.55;4.18;;;10.20;99.90;;;;;;5088935;28;20566;-52
2023/03/31 09:12:37;;;;;;;11.25;3.78;;;10.50;99.90;;;;;;5090683;28;20046;-49
2023/03/31 09:15:21;;;;;;;8.18;3.58;;;10.80;99.90;;;;;;5081852;28;20071;-47
2023/03/31 09:17:50;;;;;;;10.70;3.15;;;10.30;99.90;;;;;;5085541;28;20115;-48
2023/03/31 09:20:24;;;;;;;10.38;3.78;;;10.80;99.90;;;;;;5090091;28;20035;-48
2023/03/31 09:23:06;;;;;;;10.32;3.78;;;11.10;99.90;;;;;;5090679;28;20036;-47
2023/03/31 09:25:37;;;;;;;10.80;3.90;;;10.80;99.90;;;;;;5090698;28;20408;-50
2023/03/31 09:28:06;;;;;;;9.55;3.30;;;11.10;99.90;;;;;;5090405;28;20043;-48
2023/03/31 09:30:35;;;;;;;11.45;4.50;;;10.80;99.90;;;;;;5090393;28;20504;-49
2023/03/31 09:33:11;;;;;;;12.55;4.20;;;11.00;99.90;;;;;;5090366;28;20074;-48
2023/03/31 09:35:37;;;;;;;11.50;4.13;;;10.20;99.90;;;;;;5090346;28;20048;-48
2023/03/31 09:38:03;;;;;;;12.63;4.40;;;10.30;99.90;;;;;;5090461;28;20067;-48
2023/03/31 09:40:29;;;;;;;11.82;4.22;;;10.20;99.90;;;;;;5090112;28;20086;-51
2023/03/31 09:43:04;;;;;;;11.68;4.22;;;11.10;99.90;;;;;;5090166;28;20048;-52
2023/03/31 09:45:32;;;;;;;13.15;5.55;;;11.30;99.90;;;;;;5090193;28;20047;-51
2023/03/31 09:48:05;;;;;;;11.50;4.45;;;11.30;99.90;;;;;;5090249;28;20047;-49
2023/03/31 09:50:35;;;;;;;12.27;4.80;;;10.80;99.90;;;;;;5089855;28;20123;-47
2023/03/31 09:53:03;;;;;;;13.10;4.65;;;11.10;99.90;;;;;;5090970;28;20044;-50
2023/03/31 09:55:51;;;;;;;12.68;4.28;;;10.70;99.90;;;;;;5091225;28;20047;-49
2023/03/31 09:58:17;;;;;;;9.90;4.35;;;11.50;99.90;;;;;;5092054;28;20391;-51
2023/03/31 10:01:09;;;;;;;10.15;4.80;;;11.10;99.90;;;;;;5094933;28;20032;-48
2023/03/31 10:03:49;;;;;;;10.90;5.43;;;10.80;99.90;;;;;;5095709;28;20050;-52
2023/03/31 10:06:16;;;;;;;15.27;6.38;;;11.30;99.90;;;;;;5095850;28;20055;-50
2023/03/31 10:08:56;;;;;;;11.90;4.88;;;11.00;99.90;;;;;;5095611;28;20555;-50
2023/03/31 10:11:23;;;;;;;11.60;4.65;;;11.60;99.90;;;;;;5095386;28;20062;-47
2023/03/31 10:13:58;;;;;;;11.57;3.95;;;11.20;99.90;;;;;;5093976;28;20048;-50
2023/03/31 10:16:32;;;;;;;9.93;4.35;;;11.50;99.90;;;;;;5095193;28;20100;-50
2023/03/31 10:19:21;;;;;;;10.57;4.43;;;11.90;99.90;;;;;;5095327;28;20120;-49
2023/03/31 10:21:54;;;;;;;13.00;5.05;;;11.80;99.90;;;;;;5095199;28;20043;-52
2023/03/31 10:24:20;;;;;;;9.52;3.72;;;12.00;99.90;;;;;;5093968;28;20044;-49
2023/03/31 10:26:48;;;;;;;10.82;5.20;;;12.10;99.90;;;;;;5094264;28;20130;-48
2023/03/31 10:29:24;;;;;;;8.57;3.90;;;11.20;99.90;;;;;;5095381;28;20626;-53
2023/03/31 10:31:50;;;;;;;8.85;3.78;;;11.30;99.90;;;;;;5095032;28;20047;-49
2023/03/31 10:34:17;;;;;;;10.63;3.30;;;11.90;99.90;;;;;;5095023;28;20051;-50
2023/03/31 10:36:48;;;;;;;8.20;2.78;;;11.10;99.90;;;;;;5094936;28;20495;-47
2023/03/31 10:39:16;;;;;;;7.07;3.28;;;11.40;99.90;;;;;;5094763;28;20041;-49
2023/03/31 10:41:42;;;;;;;8.73;3.80;;;11.20;99.90;;;;;;5094962;28;20036;-48
2023/03/31 10:44:30;;;;;;;7.53;2.97;;;12.00;99.90;;;;;;5095145;28;20039;-50
2023/03/31 10:47:17;;;;;;;8.48;3.45;;;11.40;99.90;;;;;;5076914;28;20074;-49
2023/03/31 10:49:44;;;;;;;10.15;3.38;;;11.20;99.90;;;;;;5094285;28;20114;-48
2023/03/31 10:52:28;;;;;;;8.02;3.78;;;11.30;99.90;;;;;;5075713;28;20494;-50
2023/03/31 10:55:00;;;;;;;8.07;3.88;;;11.90;99.90;;;;;;5094013;28;20036;-49
2023/03/31 10:57:50;;;;;;;11.10;4.70;;;12.00;99.90;;;;;;5093242;28;20040;-48
2023/03/31 11:00:38;;;;;;;8.20;4.00;;;12.30;99.90;;;;;;5092991;28;20048;-49
2023/03/31 11:03:22;;;;;;;12.15;3.88;;;12.20;99.90;;;;;;5083669;28;20047;-54
2023/03/31 11:05:55;;;;;;;9.68;4.38;;;12.20;99.90;;;;;;5083486;28;20499;-50
2023/03/31 11:08:42;;;;;;;10.25;4.22;;;11.80;99.90;;;;;;5079253;28;20098;-49
2023/03/31 11:11:24;;;;;;;9.38;3.55;;;11.60;99.90;;;;;;5072682;28;20040;-47
2023/03/31 11:14:36;;;;;;;10.20;3.80;;;12.10;99.90;;;;;;5072720;28;20451;-49
2023/03/31 11:17:02;;;;;;;;;;;12.50;99.90;;;;;;5018341;28;20568;-47
2023/03/31 11:19:49;;;;;;;10.48;4.13;;;12.50;99.90;;;;;;5072827;28;19970;-47
2023/03/31 11:22:35;;;;;;;10.20;4.32;;;12.50;99.90;;;;;;5082889;28;20079;-48
2023/03/31 11:25:07;;;;;;;11.15;4.53;;;12.70;99.90;;;;;;5082922;28;20040;-50
2023/03/31 11:28:01;;;;;;;10.52;3.78;;;12.20;99.90;;;;;;5082516;28;20040;-48
2023/03/31 11:31:05;;;;;;;9.98;4.00;;;12.50;99.90;;;;;;5081355;28;20059;-52
2023/03/31 11:33:55;;;;;;;9.88;3.50;;;12.50;99.90;;;;;;5082027;28;20102;-51
2023/03/31 11:36:35;;;;;;;11.63;4.18;;;12.70;99.90;;;;;;5081217;28;20040;-52
2023/03/31 11:39:27;;;;;;;12.00;3.38;;;12.20;99.90;;;;;;5083054;28;20036;-51
2023/03/31 11:42:22;;;;;;;10.60;4.68;;;12.50;99.90;;;;;;5081773;28;20044;-48
2023/03/31 11:45:09;;;;;;;12.18;3.75;;;13.30;99.90;;;;;;5068901;28;20491;-52
2023/03/31 11:47:36;;;;;;;11.88;3.80;;;13.10;99.90;;;;;;5082338;28;20548;-48
2023/03/31 11:50:18;;;;;;;11.15;3.45;;;13.20;99.90;;;;;;5080777;28;20079;-48
2023/03/31 11:53:00;;;;;;;13.77;4.72;;;12.90;99.90;;;;;;5080893;28;20094;-48
2023/03/31 11:55:28;;;;;;;7.05;2.75;;;12.70;99.90;;;;;;5080522;28;20036;-51
2023/03/31 11:58:11;;;;;;;10.25;3.10;;;13.10;99.90;;;;;;5080879;28;20563;-51
2023/03/31 12:00:40;;;;;;;8.70;3.15;;;13.00;99.90;;;;;;5082099;28;20389;-51
2023/03/31 12:03:32;;;;;;;10.18;3.08;;;13.10;99.90;;;;;;5080543;28;20036;-51
2023/03/31 12:06:05;;;;;;;9.60;2.78;;;13.40;99.90;;;;;;5082161;28;20502;-47
2023/03/31 12:08:59;;;;;;;9.02;2.65;;;13.20;99.90;;;;;;5080250;28;20111;-49
2023/03/31 12:11:49;;;;;;;9.40;2.92;;;13.40;99.90;;;;;;5059793;28;20472;-51
2023/03/31 12:14:32;;;;;;;8.93;2.70;;;13.20;99.90;;;;;;5080803;28;20040;-49
2023/03/31 12:17:32;;;;;;;7.70;2.22;;;12.70;99.90;;;;;;5081201;28;20051;-48
2023/03/31 12:20:06;;;;;;;8.73;2.25;;;12.80;99.90;;;;;;5081540;28;20089;-51
2023/03/31 12:22:40;;;;;;;8.80;2.45;;;12.50;99.90;;;;;;5070749;28;20044;-49
2023/03/31 12:25:12;;;;;;;8.32;2.33;;;12.70;99.90;;;;;;5071333;28;20044;-51
2023/03/31 12:27:43;;;;;;;7.97;2.58;;;12.30;99.90;;;;;;5071382;28;20477;-52
2023/03/31 12:30:15;;;;;;;12.53;3.23;;;12.60;99.90;;;;;;5072462;28;20051;-54
2023/03/31 12:32:46;;;;;;;10.23;3.28;;;12.80;99.90;;;;;;5072412;28;20048;-48
2023/03/31 12:35:23;;;;;;;11.13;3.00;;;12.50;99.90;;;;;;5072553;28;20063;-49
2023/03/31 12:38:08;;;;;;;11.77;3.17;;;12.30;99.90;;;;;;5072365;28;20169;-49
2023/03/31 12:41:03;;;;;;;9.15;2.95;;;12.40;99.90;;;;;;5072355;28;20425;-54
2023/03/31 12:43:35;;;;;;;21.70;3.67;;;11.80;99.90;;;;;;5072383;28;20040;-59
2023/03/31 12:46:10;;;;;;;10.18;2.85;;;12.40;99.90;;;;;;5077686;28;20047;-59
2023/03/31 12:48:54;;;;;;;8.43;2.15;;;12.20;99.90;;;;;;5084504;28;20048;-58
2023/03/31 12:52:07;;;;;;;9.55;2.60;;;12.20;99.90;;;;;;5082624;28;20044;-55
2023/03/31 12:54:54;;;;;;;9.02;2.60;;;11.70;99.90;;;;;;5082612;28;20532;-55
2023/03/31 12:57:22;;;;;;;10.30;3.20;;;11.70;99.90;;;;;;5086883;28;20099;-50
2023/03/31 13:00:16;;;;;;;11.73;3.20;;;12.10;99.90;;;;;;5092451;28;20085;-50
2023/03/31 13:02:42;;;;;;;11.85;4.15;;;11.80;99.90;;;;;;5092120;28;20131;-51
2023/03/31 13:05:36;;;;;;;11.13;4.28;;;12.30;99.90;;;;;;5091983;28;20071;-50
2023/03/31 13:08:03;;;;;;;11.50;3.67;;;12.40;99.90;;;;;;5085708;28;20040;-49
2023/03/31 13:10:30;;;;;;;12.38;4.03;;;12.40;99.90;;;;;;5079143;28;20047;-49
2023/03/31 13:13:02;;;;;;;14.93;5.03;;;12.80;99.90;;;;;;5092518;28;20040;-49